Time;durP1;ratioP1;P1;durP2;ratioP2;P2;SDS_P1;SDS_P2;PMS_P1;PMS_P2;Temp;Humidity;BMP_temperature;BMP_pressure;BME280_temperature;BME280_humidity;BME280_pressure;Samples;Min_cycle;Max_cycle;Signal;HPM_P1;HPM_P2
2021/12/08 00:01:17;;;;;;;43.30;21.40;;;;;;;-6.03;75.60;100639.75;83857;1331;1003076;-81
2021/12/08 00:03:28;;;;;;;36.00;19.00;;;;;;;-6.01;75.80;100637.62;84611;1329;22597;-68
2021/12/08 00:05:35;;;;;;;30.60;16.00;;;;;;;-6.00;75.82;100635.09;84581;1330;25513;-67
2021/12/08 00:07:43;;;;;;;33.40;17.10;;;;;;;-6.03;75.84;100633.11;84597;1330;22840;-68
2021/12/08 00:10:02;;;;;;;35.40;19.10;;;;;;;-6.02;75.90;100633.48;84570;1332;22728;-69
2021/12/08 00:14:38;;;;;;;42.10;19.80;;;;;;;-6.00;75.91;100633.40;84578;1333;22596;-68
2021/12/08 00:16:48;;;;;;;35.80;21.00;;;;;;;-6.04;75.87;100641.08;84568;1326;22904;-68
2021/12/08 00:19:00;;;;;;;36.40;19.80;;;;;;;-6.06;75.98;100642.88;84577;1334;22729;-69
2021/12/08 00:21:10;;;;;;;38.70;19.20;;;;;;;-6.09;75.98;100640.22;84603;1332;25943;-70
2021/12/08 00:23:20;;;;;;;32.60;17.70;;;;;;;-6.13;76.14;100639.92;84631;1333;25435;-83
2021/12/08 00:25:30;;;;;;;40.80;19.40;;;;;;;-6.18;76.18;100644.52;83876;1333;1003352;-82
2021/12/08 00:27:39;;;;;;;43.50;20.80;;;;;;;-6.21;76.25;100647.46;84585;1329;25306;-81
2021/12/08 00:29:46;;;;;;;33.20;17.30;;;;;;;-6.24;76.13;100648.39;83847;1332;1003452;-82
2021/12/08 00:31:56;;;;;;;33.70;17.70;;;;;;;-6.22;76.16;100656.08;84485;1332;22609;-83
2021/12/08 00:34:03;;;;;;;34.00;18.00;;;;;;;-6.19;76.30;100659.75;83855;1333;1003129;-70
2021/12/08 00:36:15;;;;;;;33.10;19.00;;;;;;;-6.17;76.27;100662.52;83897;1332;1003662;-72
2021/12/08 00:38:26;;;;;;;34.40;19.30;;;;;;;-6.15;76.22;100661.42;84414;1334;22776;-81
2021/12/08 00:40:33;;;;;;;40.40;18.80;;;;;;;-6.18;76.17;100653.35;84608;1322;22730;-82
2021/12/08 00:42:39;;;;;;;37.30;19.20;;;;;;;-6.21;76.22;100655.27;84603;1329;24163;-82
2021/12/08 00:44:45;;;;;;;38.40;20.70;;;;;;;-6.24;76.32;100654.52;84629;1331;22611;-69
2021/12/08 00:46:52;;;;;;;36.00;19.40;;;;;;;-6.25;76.29;100655.32;84568;1331;22749;-69
2021/12/08 00:48:59;;;;;;;37.20;19.20;;;;;;;-6.26;76.54;100660.05;84597;1331;22614;-83
2021/12/08 00:51:06;;;;;;;37.40;19.30;;;;;;;-6.29;76.35;100667.58;84613;1330;24364;-81
2021/12/08 00:53:15;;;;;;;39.40;18.70;;;;;;;-6.27;76.46;100665.59;84609;1332;22602;-82
2021/12/08 00:55:22;;;;;;;32.90;17.60;;;;;;;-6.27;76.39;100665.09;84600;1333;23838;-81
2021/12/08 00:57:29;;;;;;;32.70;18.30;;;;;;;-6.25;76.55;100657.88;84627;1333;22645;-82
2021/12/08 00:59:35;;;;;;;30.30;17.10;;;;;;;-6.25;76.51;100657.33;84452;1335;23108;-70
2021/12/08 01:01:42;;;;;;;31.10;16.10;;;;;;;-6.28;76.46;100655.20;84534;1334;24247;-70
2021/12/08 01:03:52;;;;;;;29.80;16.80;;;;;;;-6.30;76.47;100653.77;83919;1329;1003893;-70
2021/12/08 01:05:58;;;;;;;34.10;17.90;;;;;;;-6.30;76.55;100656.68;83877;1331;1003626;-70
2021/12/08 01:08:09;;;;;;;32.70;19.20;;;;;;;-6.31;76.41;100654.95;84599;1332;22624;-82
2021/12/08 01:10:20;;;;;;;35.40;19.00;;;;;;;-6.30;76.64;100656.66;84577;1331;22740;-83
2021/12/08 01:12:27;;;;;;;36.50;17.80;;;;;;;-6.33;76.59;100653.86;83882;1333;1002849;-82
2021/12/08 01:14:34;;;;;;;33.30;18.00;;;;;;;-6.35;76.60;100650.71;83871;1331;1003078;-83
2021/12/08 01:16:41;;;;;;;34.90;18.10;;;;;;;-6.41;76.64;100645.94;84606;1329;22654;-83
2021/12/08 01:18:50;;;;;;;28.70;17.70;;;;;;;-6.40;76.56;100642.25;83900;1333;1004792;-70
2021/12/08 01:21:01;;;;;;;28.50;17.30;;;;;;;-6.37;76.56;100635.02;84569;1331;22590;-69
2021/12/08 01:23:10;;;;;;;31.30;18.50;;;;;;;-6.35;76.64;100643.60;84579;1333;22716;-80
2021/12/08 01:25:17;;;;;;;31.40;18.30;;;;;;;-6.33;76.70;100645.88;84588;1333;24157;-81
2021/12/08 01:27:27;;;;;;;34.20;16.80;;;;;;;-6.35;76.65;100648.34;84602;1333;22596;-82
2021/12/08 01:29:33;;;;;;;34.10;18.30;;;;;;;-6.39;76.57;100655.99;84607;1330;22615;-82
2021/12/08 01:31:42;;;;;;;37.30;18.80;;;;;;;-6.44;76.65;100652.62;84602;1333;22634;-83
2021/12/08 01:33:48;;;;;;;35.20;18.60;;;;;;;-6.46;76.81;100649.31;84577;1330;25330;-83
2021/12/08 01:35:55;;;;;;;36.60;18.90;;;;;;;-6.49;76.91;100640.59;84468;1333;25447;-83
2021/12/08 01:38:02;;;;;;;34.30;19.70;;;;;;;-6.50;76.96;100642.05;84619;1333;24222;-79
2021/12/08 01:40:11;;;;;;;35.20;19.70;;;;;;;-6.50;77.08;100643.23;84593;1333;25311;-82
2021/12/08 01:42:28;;;;;;;31.90;17.50;;;;;;;-6.50;76.92;100638.84;84597;1333;22590;-82
2021/12/08 01:46:59;;;;;;;36.80;19.00;;;;;;;-6.49;76.92;100634.45;84613;1330;22697;-82
2021/12/08 01:49:06;;;;;;;36.90;21.10;;;;;;;-6.45;76.99;100633.23;84587;1333;22589;-83
2021/12/08 01:51:15;;;;;;;34.10;19.20;;;;;;;-6.43;76.98;100630.41;84596;1329;24038;-83
2021/12/08 01:53:22;;;;;;;37.00;20.10;;;;;;;-6.46;76.98;100623.85;83897;1332;1002899;-81
2021/12/08 01:55:30;;;;;;;36.30;19.00;;;;;;;-6.52;76.95;100620.27;84595;1333;22659;-82
2021/12/08 01:57:37;;;;;;;39.20;19.20;;;;;;;-6.52;77.11;100612.79;84548;1334;22609;-81
2021/12/08 01:59:47;;;;;;;39.50;20.10;;;;;;;-6.53;77.27;100608.20;84540;1334;22593;-70
2021/12/08 02:01:56;;;;;;;39.80;21.40;;;;;;;-6.50;77.30;100606.41;84596;1333;22805;-81
2021/12/08 02:04:06;;;;;;;29.30;17.00;;;;;;;-6.46;77.24;100604.15;83903;1332;1003354;-70
2021/12/08 02:06:14;;;;;;;42.00;20.70;;;;;;;-6.44;77.27;100593.38;84559;1334;25315;-70
2021/12/08 02:08:21;;;;;;;33.30;19.20;;;;;;;-6.39;77.33;100589.65;84613;1330;22904;-80
2021/12/08 02:10:30;;;;;;;38.80;21.10;;;;;;;-6.35;77.26;100586.39;84616;1333;22619;-82
2021/12/08 02:12:40;;;;;;;38.50;22.80;;;;;;;-6.33;77.26;100580.34;84588;1333;22602;-82
2021/12/08 02:14:47;;;;;;;42.20;23.20;;;;;;;-6.35;77.34;100576.89;83823;1333;922536;-70
2021/12/08 02:16:54;;;;;;;41.60;22.20;;;;;;;-6.36;77.34;100578.88;84593;1333;24357;-70
2021/12/08 02:19:06;;;;;;;43.00;23.90;;;;;;;-6.37;77.26;100580.04;84542;1334;22610;-69
2021/12/08 02:21:31;;;;;;;41.40;21.70;;;;;;;-6.35;77.25;100581.98;83873;1333;1002993;-69
2021/12/08 02:23:38;;;;;;;50.70;23.70;;;;;;;-6.36;77.37;100578.23;84539;1331;22708;-69
2021/12/08 02:25:46;;;;;;;39.00;21.90;;;;;;;-6.37;77.29;100583.27;84595;1333;22662;-68
2021/12/08 02:27:54;;;;;;;37.90;21.10;;;;;;;-6.38;77.33;100581.71;84576;1333;22586;-79
2021/12/08 02:30:12;;;;;;;32.50;19.60;;;;;;;-6.36;77.49;100587.73;84496;1335;22620;-69
2021/12/08 02:46:36;;;;;;;39.90;22.20;;;;;;;-6.35;77.40;100589.80;84575;1334;25551;-69
2021/12/08 02:47:09;;;;;;;41.30;23.10;;;;;;;-6.34;77.17;100569.60;83911;1333;1003361;-70
2021/12/08 02:49:16;;;;;;;44.40;24.10;;;;;;;-6.39;77.21;100569.28;84549;1334;22589;-82
2021/12/08 02:51:26;;;;;;;46.60;23.70;;;;;;;-6.39;77.24;100570.66;84571;1334;24371;-82
2021/12/08 02:53:36;;;;;;;36.70;19.80;;;;;;;-6.38;77.21;100568.96;84594;1330;22816;-82
2021/12/08 02:55:47;;;;;;;33.10;19.70;;;;;;;-6.37;77.31;100570.68;84596;1330;22605;-83
2021/12/08 02:57:57;;;;;;;33.50;20.00;;;;;;;-6.34;77.38;100571.82;84562;1333;22600;-77
2021/12/08 03:00:09;;;;;;;35.90;20.10;;;;;;;-6.33;77.25;100576.26;84572;1334;22650;-70
2021/12/08 03:02:16;;;;;;;40.10;20.90;;;;;;;-6.31;77.26;100583.10;84594;1333;25246;-70
2021/12/08 03:04:26;;;;;;;31.30;19.10;;;;;;;-6.33;77.08;100584.23;83843;1334;1002955;-70
2021/12/08 03:06:36;;;;;;;30.80;18.20;;;;;;;-6.37;76.92;100584.45;84564;1333;22643;-70
2021/12/08 03:08:46;;;;;;;26.80;16.70;;;;;;;-6.43;76.97;100586.47;83883;1334;1003085;-69
2021/12/08 03:10:54;;;;;;;32.90;18.50;;;;;;;-6.51;76.92;100583.81;84570;1332;22600;-68
2021/12/08 03:13:00;;;;;;;34.50;20.00;;;;;;;-6.55;76.88;100587.23;84622;1333;22610;-80
2021/12/08 03:15:08;;;;;;;29.10;17.00;;;;;;;-6.57;76.96;100588.34;84561;1334;24181;-83
2021/12/08 03:17:18;;;;;;;23.90;15.40;;;;;;;-6.57;76.98;100594.79;84555;1334;22620;-80
2021/12/08 03:19:26;;;;;;;29.90;17.50;;;;;;;-6.58;76.93;100592.23;83922;1332;1003026;-69
2021/12/08 03:21:36;;;;;;;28.30;17.00;;;;;;;-6.57;77.10;100589.20;84560;1332;22602;-71
2021/12/08 03:23:53;;;;;;;30.80;17.40;;;;;;;-6.55;77.05;100586.56;84564;1334;22804;-81
2021/12/08 03:26:03;;;;;;;29.70;16.80;;;;;;;-6.54;77.10;100585.59;84583;1331;22729;-80
2021/12/08 03:28:18;;;;;;;27.60;16.70;;;;;;;-6.56;76.98;100590.95;83841;1334;1003255;-79
2021/12/08 03:30:32;;;;;;;30.40;17.70;;;;;;;-6.61;76.93;100593.83;84577;1333;22772;-81
2021/12/08 03:32:42;;;;;;;35.70;19.60;;;;;;;-6.65;76.95;100588.42;84600;1333;24055;-80
2021/12/08 03:34:52;;;;;;;32.20;19.20;;;;;;;-6.65;76.94;100586.71;84629;1330;22617;-71
2021/12/08 03:37:02;;;;;;;27.60;17.70;;;;;;;-6.64;77.11;100586.42;84574;1330;22629;-70
2021/12/08 03:39:11;;;;;;;31.00;16.70;;;;;;;-6.62;77.01;100581.20;83842;1330;1003487;-79
2021/12/08 03:41:24;;;;;;;30.70;16.50;;;;;;;-6.61;77.03;100582.61;84589;1333;25316;-81
2021/12/08 03:43:33;;;;;;;30.40;16.90;;;;;;;-6.58;77.21;100584.24;84582;1323;22618;-68
2021/12/08 03:45:44;;;;;;;32.30;19.40;;;;;;;-6.57;77.18;100583.94;84552;1334;24119;-70
2021/12/08 03:47:58;;;;;;;30.60;18.40;;;;;;;-6.57;77.31;100581.56;84628;1333;22601;-71
2021/12/08 03:50:07;;;;;;;35.60;18.20;;;;;;;-6.55;77.38;100577.24;84612;1323;22593;-79
2021/12/08 03:52:14;;;;;;;32.40;19.60;;;;;;;-6.54;77.37;100574.40;84577;1326;22611;-80
2021/12/08 03:54:21;;;;;;;33.60;18.50;;;;;;;-6.53;77.31;100573.73;84539;1330;22618;-80
2021/12/08 03:56:29;;;;;;;32.20;18.90;;;;;;;-6.52;77.35;100570.35;84548;1332;22609;-81
2021/12/08 03:58:38;;;;;;;39.40;20.80;;;;;;;-6.55;77.20;100564.51;84498;1334;22277;-81
2021/12/08 04:00:46;;;;;;;40.40;18.40;;;;;;;-6.55;77.14;100561.98;83906;1332;1003778;-81
2021/12/08 04:02:55;;;;;;;26.30;16.40;;;;;;;-6.52;77.20;100555.10;83841;1335;1002974;-73
2021/12/08 04:05:03;;;;;;;29.40;17.00;;;;;;;-6.50;77.35;100548.23;84514;1333;24135;-69
2021/12/08 04:07:11;;;;;;;27.40;16.30;;;;;;;-6.47;77.33;100549.14;84601;1330;24168;-69
2021/12/08 04:09:26;;;;;;;30.40;17.20;;;;;;;-6.45;77.27;100556.53;84575;1333;22825;-80
2021/12/08 04:11:35;;;;;;;28.90;17.00;;;;;;;-6.42;77.21;100562.04;84621;1332;25272;-81
2021/12/08 04:13:48;;;;;;;27.40;16.90;;;;;;;-6.44;77.13;100556.89;83878;1330;1003824;-80
2021/12/08 04:15:55;;;;;;;26.50;15.90;;;;;;;-6.46;76.99;100553.58;84589;1333;22645;-81
2021/12/08 04:18:02;;;;;;;31.00;19.00;;;;;;;-6.50;76.97;100544.47;83941;1328;1016087;-80
2021/12/08 04:20:11;;;;;;;30.60;19.40;;;;;;;-6.54;77.03;100535.36;84605;1328;22603;-82
2021/12/08 04:22:19;;;;;;;35.30;19.40;;;;;;;-6.54;76.99;100530.45;84613;1333;22588;-82
2021/12/08 04:24:29;;;;;;;33.50;19.30;;;;;;;-6.52;77.02;100524.53;84625;1326;24674;-81
2021/12/08 04:26:38;;;;;;;31.10;19.10;;;;;;;-6.52;77.13;100526.59;84615;1328;22593;-81
2021/12/08 04:28:45;;;;;;;27.90;18.00;;;;;;;-6.49;77.29;100527.36;84636;1328;22599;-82
2021/12/08 04:30:53;;;;;;;29.00;18.10;;;;;;;-6.46;77.25;100531.20;84639;1332;23158;-82
2021/12/08 04:33:00;;;;;;;28.00;18.20;;;;;;;-6.46;77.13;100531.70;84660;1330;22619;-68
2021/12/08 04:35:09;;;;;;;30.80;19.50;;;;;;;-6.43;77.29;100530.61;83936;1328;1003546;-71
2021/12/08 04:37:23;;;;;;;28.00;16.40;;;;;;;-6.39;77.25;100528.52;84620;1333;22646;-69
2021/12/08 04:39:45;;;;;;;26.30;15.60;;;;;;;-6.41;77.11;100527.30;84634;1332;22598;-69
2021/12/08 04:42:04;;;;;;;24.80;15.60;;;;;;;-6.46;77.06;100527.61;84574;1333;22594;-69
2021/12/08 04:44:24;;;;;;;23.60;14.70;;;;;;;-6.51;77.14;100525.95;84612;1332;22707;-81
2021/12/08 04:46:48;;;;;;;27.50;16.30;;;;;;;-6.56;77.12;100524.59;84599;1333;22591;-83
2021/12/08 04:49:19;;;;;;;29.70;17.10;;;;;;;-6.60;77.25;100528.02;84643;1328;23078;-81
2021/12/08 04:51:45;;;;;;;29.90;18.20;;;;;;;-6.60;77.41;100528.35;84597;1332;24169;-80
2021/12/08 05:01:56;;;;;;;25.60;16.10;;;;;;;-6.58;77.40;100534.18;84446;1336;22906;-68
2021/12/08 05:04:30;;;;;;;28.00;15.90;;;;;;;-6.58;77.47;100530.95;83750;1331;1003163;-82
2021/12/08 05:06:50;;;;;;;25.30;14.80;;;;;;;-6.68;77.27;100528.40;84589;1332;22637;-82
2021/12/08 05:08:58;;;;;;;30.30;17.00;;;;;;;-6.72;77.47;100528.79;84679;1332;25297;-70
2021/12/08 05:11:05;;;;;;;29.30;16.50;;;;;;;-6.74;77.49;100525.34;83979;1330;1003851;-69
2021/12/08 05:13:12;;;;;;;28.20;16.70;;;;;;;-6.79;77.52;100522.64;83949;1332;1015912;-79
2021/12/08 05:15:21;;;;;;;28.50;15.80;;;;;;;-6.83;77.48;100519.78;83893;1330;1003810;-80
2021/12/08 05:17:30;;;;;;;31.60;17.80;;;;;;;-6.82;77.49;100514.54;84645;1329;23945;-80
2021/12/08 05:19:41;;;;;;;28.60;17.10;;;;;;;-6.79;77.60;100513.63;84658;1330;22609;-79
2021/12/08 05:21:50;;;;;;;27.30;16.00;;;;;;;-6.79;77.65;100523.64;84649;1332;22641;-79
2021/12/08 05:24:00;;;;;;;29.80;16.90;;;;;;;-6.79;77.74;100526.71;84639;1325;22951;-81
2021/12/08 05:26:09;;;;;;;24.50;14.70;;;;;;;-6.78;77.82;100535.06;83870;1331;1003147;-80
2021/12/08 05:28:26;;;;;;;28.50;15.60;;;;;;;-6.78;77.80;100540.15;84664;1330;24385;-68
2021/12/08 05:30:38;;;;;;;26.80;17.30;;;;;;;-6.80;77.77;100538.86;84598;1330;22591;-68
2021/12/08 05:32:52;;;;;;;30.00;17.40;;;;;;;-6.79;77.81;100540.96;84612;1331;23913;-69
2021/12/08 05:34:59;;;;;;;29.90;18.00;;;;;;;-6.78;77.82;100538.11;83932;1330;1015480;-79
2021/12/08 05:37:05;;;;;;;30.80;19.00;;;;;;;-6.78;77.77;100537.27;84606;1324;22940;-80
2021/12/08 05:39:16;;;;;;;32.50;19.00;;;;;;;-6.78;77.70;100535.73;83949;1329;1003471;-80
2021/12/08 05:41:25;;;;;;;33.20;17.60;;;;;;;-6.80;77.70;100540.06;84621;1331;22627;-79
2021/12/08 05:43:31;;;;;;;24.10;16.40;;;;;;;-6.79;77.66;100539.42;83948;1332;1005083;-69
2021/12/08 05:45:38;;;;;;;27.40;16.90;;;;;;;-6.80;77.59;100540.77;84610;1328;22625;-68
2021/12/08 05:47:45;;;;;;;26.20;16.00;;;;;;;-6.80;77.59;100544.34;84627;1329;22624;-68
2021/12/08 05:49:55;;;;;;;30.60;18.30;;;;;;;-6.75;77.60;100546.68;83927;1332;1002884;-68
2021/12/08 05:52:05;;;;;;;26.00;16.20;;;;;;;-6.73;77.63;100545.07;84650;1332;25468;-68
2021/12/08 05:54:18;;;;;;;26.50;16.70;;;;;;;-6.71;77.60;100538.33;84630;1329;22610;-82
2021/12/08 05:56:24;;;;;;;29.30;16.90;;;;;;;-6.79;77.07;100529.26;84593;1332;22841;-81
2021/12/08 05:58:31;;;;;;;28.70;16.20;;;;;;;-6.85;77.13;100524.11;83936;1329;1003498;-69
2021/12/08 06:00:39;;;;;;;30.70;16.90;;;;;;;-6.90;77.04;100521.75;84635;1332;22593;-69
2021/12/08 06:02:51;;;;;;;31.40;17.20;;;;;;;-6.94;76.96;100517.87;84610;1333;23800;-68
2021/12/08 06:05:01;;;;;;;32.60;20.00;;;;;;;-6.95;76.96;100519.01;83864;1323;1003528;-68
2021/12/08 06:07:08;;;;;;;30.30;17.60;;;;;;;-6.92;76.98;100520.14;84578;1329;23916;-81
2021/12/08 06:09:15;;;;;;;25.70;16.40;;;;;;;-6.90;76.99;100520.37;84594;1326;22614;-81
2021/12/08 06:11:22;;;;;;;23.80;15.70;;;;;;;-6.87;76.92;100517.09;84545;1331;24311;-80
2021/12/08 06:13:29;;;;;;;27.90;16.90;;;;;;;-6.87;76.91;100511.16;84633;1332;22756;-68
2021/12/08 06:15:39;;;;;;;26.40;16.90;;;;;;;-6.86;76.71;100511.02;84583;1329;22626;-69
2021/12/08 06:17:46;;;;;;;30.20;17.50;;;;;;;-6.87;76.65;100508.96;84568;1333;25438;-68
2021/12/08 06:19:53;;;;;;;31.30;17.30;;;;;;;-6.87;76.65;100509.64;83938;1328;1003778;-81
2021/12/08 06:22:01;;;;;;;26.60;16.70;;;;;;;-6.88;76.13;100517.58;84658;1329;22609;-67
2021/12/08 06:24:14;;;;;;;29.10;16.20;;;;;;;-6.94;75.59;100522.80;84639;1329;23062;-80
2021/12/08 06:26:22;;;;;;;26.60;16.70;;;;;;;-7.03;74.83;100529.09;84623;1329;23008;-81
2021/12/08 06:28:32;;;;;;;29.80;16.70;;;;;;;-7.11;74.86;100533.57;84649;1317;22646;-79
2021/12/08 06:30:45;;;;;;;27.20;17.50;;;;;;;-7.16;74.77;100541.50;84652;1326;24494;-79
2021/12/08 06:32:57;;;;;;;25.50;14.40;;;;;;;-7.17;74.86;100546.73;84608;1326;22590;-72
2021/12/08 06:35:12;;;;;;;24.20;14.70;;;;;;;-7.18;74.88;100549.41;84651;1329;25307;-81
2021/12/08 06:37:23;;;;;;;28.70;15.50;;;;;;;-7.17;74.99;100549.45;83977;1329;1003068;-78
2021/12/08 06:39:37;;;;;;;21.60;13.90;;;;;;;-7.18;74.68;100550.77;84605;1332;22698;-83
2021/12/08 06:41:49;;;;;;;24.40;15.60;;;;;;;-7.22;74.55;100556.71;84646;1330;24372;-85
2021/12/08 06:44:07;;;;;;;26.10;16.30;;;;;;;-7.25;74.73;100560.16;84689;1329;22641;-84
2021/12/08 06:46:17;;;;;;;26.70;15.90;;;;;;;-7.30;74.63;100564.05;84584;1329;22607;-84
2021/12/08 06:48:30;;;;;;;18.10;11.20;;;;;;;-7.34;74.80;100569.33;84584;1326;22924;-83
2021/12/08 06:50:47;;;;;;;28.70;16.00;;;;;;;-7.36;75.02;100577.55;84639;1330;22616;-67
2021/12/08 06:52:59;;;;;;;29.40;15.90;;;;;;;-7.35;74.87;100580.30;84698;1329;23067;-79
2021/12/08 06:55:15;;;;;;;36.90;17.30;;;;;;;-7.37;74.76;100575.32;83901;1333;1015793;-83
2021/12/08 06:57:34;;;;;;;27.50;14.30;;;;;;;-7.34;74.98;100573.23;84600;1332;24314;-84
2021/12/08 06:59:57;;;;;;;24.60;14.80;;;;;;;-7.25;75.05;100577.27;84583;1332;25661;-85
2021/12/08 07:02:12;;;;;;;22.70;13.50;;;;;;;-7.22;74.57;100582.98;84613;1330;22615;-85
2021/12/08 07:04:30;;;;;;;22.20;13.80;;;;;;;-7.19;74.90;100585.63;84656;1327;22683;-68
2021/12/08 07:06:46;;;;;;;22.40;13.20;;;;;;;-7.12;74.59;100593.70;84566;1331;22718;-67
2021/12/08 07:08:58;;;;;;;24.40;12.80;;;;;;;-7.06;74.77;100597.13;84653;1331;22612;-82
2021/12/08 07:11:07;;;;;;;22.20;12.90;;;;;;;-6.95;75.02;100597.19;84643;1329;22620;-82
2021/12/08 07:13:20;;;;;;;18.10;12.10;;;;;;;-6.86;74.76;100596.48;84641;1330;22566;-83
2021/12/08 07:15:33;;;;;;;19.60;12.30;;;;;;;-6.83;74.45;100598.33;84589;1333;25322;-83
2021/12/08 07:17:44;;;;;;;18.50;12.10;;;;;;;-6.84;74.29;100605.73;84612;1323;23583;-82
2021/12/08 07:20:15;;;;;;;20.50;12.30;;;;;;;-6.83;74.11;100604.41;84697;1329;24189;-82
2021/12/08 07:22:33;;;;;;;17.40;11.40;;;;;;;-6.87;73.78;100607.85;84619;1329;24251;-83
2021/12/08 07:24:48;;;;;;;16.70;9.10;;;;;;;-6.92;73.52;100605.77;84605;1332;22619;-68
2021/12/08 07:26:59;;;;;;;19.10;12.60;;;;;;;-6.99;73.49;100606.04;84569;1329;22639;-68
2021/12/08 07:29:12;;;;;;;20.30;12.50;;;;;;;-7.04;73.11;100606.36;84576;1329;22593;-67
2021/12/08 07:31:25;;;;;;;24.20;13.50;;;;;;;-7.11;73.40;100604.09;83872;1331;1003499;-67
2021/12/08 07:33:34;;;;;;;18.70;12.80;;;;;;;-7.15;73.35;100600.38;84558;1331;25314;-67
2021/12/08 07:35:50;;;;;;;29.30;15.50;;;;;;;-7.22;73.26;100597.89;84551;1332;23131;-68
2021/12/08 07:38:01;;;;;;;22.20;13.70;;;;;;;-7.24;73.61;100591.56;84653;1330;22597;-69
2021/12/08 07:40:17;;;;;;;24.20;13.10;;;;;;;-7.22;73.68;100585.85;84639;1329;26372;-71
2021/12/08 07:42:29;;;;;;;20.30;12.60;;;;;;;-7.19;73.74;100577.69;84589;1332;22599;-67
2021/12/08 07:44:40;;;;;;;25.40;13.40;;;;;;;-7.15;73.81;100570.70;84015;1330;1003059;-84
2021/12/08 07:46:51;;;;;;;21.40;11.40;;;;;;;-7.07;73.91;100565.22;84684;1329;22749;-84
2021/12/08 07:49:07;;;;;;;16.90;10.90;;;;;;;-7.01;73.68;100566.64;84613;1328;25379;-84
2021/12/08 07:51:22;;;;;;;16.60;11.80;;;;;;;-6.98;73.54;100568.24;84609;1327;22718;-83
2021/12/08 07:53:34;;;;;;;19.60;11.80;;;;;;;-6.93;73.62;100566.73;84585;1332;24286;-82
2021/12/08 07:55:48;;;;;;;17.00;10.80;;;;;;;-6.87;73.33;100566.11;84578;1330;25271;-83
2021/12/08 07:57:57;;;;;;;17.30;12.30;;;;;;;-6.83;73.41;100570.67;84623;1329;22806;-81
2021/12/08 08:00:14;;;;;;;18.40;10.70;;;;;;;-6.77;73.30;100576.98;84577;1330;22827;-82
2021/12/08 08:02:25;;;;;;;20.40;11.80;;;;;;;-6.73;73.16;100578.80;84610;1329;22732;-83
2021/12/08 08:04:40;;;;;;;19.00;12.00;;;;;;;-6.76;72.75;100583.63;84564;1331;25442;-83
2021/12/08 08:06:50;;;;;;;23.10;11.00;;;;;;;-6.82;72.76;100589.70;84576;1329;22735;-82
2021/12/08 08:09:04;;;;;;;21.80;12.30;;;;;;;-6.85;72.86;100588.05;84625;1332;22605;-82
2021/12/08 08:11:19;;;;;;;17.50;11.00;;;;;;;-6.87;72.59;100588.13;83924;1333;1003609;-84
2021/12/08 08:13:31;;;;;;;20.80;12.40;;;;;;;-6.95;72.28;100593.11;83920;1325;1003456;-83
2021/12/08 08:15:46;;;;;;;19.30;11.30;;;;;;;-7.03;72.37;100595.89;83923;1323;1003954;-84
2021/12/08 08:18:04;;;;;;;20.00;11.50;;;;;;;-7.09;72.53;100596.35;84648;1324;22671;-78
2021/12/08 08:20:17;;;;;;;24.10;13.60;;;;;;;-7.12;72.70;100597.77;83882;1331;1003168;-84
2021/12/08 08:22:29;;;;;;;21.40;12.40;;;;;;;-7.12;72.77;100596.42;84649;1329;22873;-84
2021/12/08 08:24:37;;;;;;;21.70;11.50;;;;;;;-7.11;72.90;100597.80;84577;1329;22604;-82
2021/12/08 08:26:48;;;;;;;22.20;12.00;;;;;;;-7.08;72.98;100597.59;83872;1330;1003670;-84
2021/12/08 08:28:59;;;;;;;18.60;11.70;;;;;;;-7.04;72.86;100596.38;84645;1329;22680;-69
2021/12/08 08:31:13;;;;;;;19.10;11.10;;;;;;;-6.97;72.90;100592.55;84668;1329;24284;-68
2021/12/08 08:33:24;;;;;;;22.50;13.00;;;;;;;-6.88;72.84;100590.33;83983;1330;1003202;-81
2021/12/08 08:35:36;;;;;;;18.30;12.10;;;;;;;-6.82;72.74;100585.45;84562;1332;22729;-82
2021/12/08 08:37:48;;;;;;;20.30;11.00;;;;;;;-6.73;72.64;100583.39;84658;1329;22644;-82
2021/12/08 08:40:03;;;;;;;21.20;11.80;;;;;;;-6.64;72.78;100579.98;84598;1330;25329;-82
2021/12/08 08:42:16;;;;;;;25.10;13.90;;;;;;;-6.54;72.71;100574.70;84636;1328;22803;-80
2021/12/08 08:44:29;;;;;;;22.50;12.60;;;;;;;-6.50;72.15;100576.41;84566;1332;22597;-81
2021/12/08 08:46:45;;;;;;;25.20;13.50;;;;;;;-6.45;72.36;100570.60;84623;1332;23980;-81
2021/12/08 08:48:57;;;;;;;23.80;13.10;;;;;;;-6.41;71.88;100571.05;83877;1331;1003006;-81
2021/12/08 08:51:09;;;;;;;23.10;12.50;;;;;;;-6.41;72.17;100558.00;84637;1324;22936;-79
2021/12/08 08:53:21;;;;;;;19.60;12.70;;;;;;;-6.35;72.49;100554.82;84595;1331;24312;-67
2021/12/08 08:55:37;;;;;;;23.70;13.80;;;;;;;-6.29;72.30;100545.02;84618;1329;25421;-68
2021/12/08 08:57:48;;;;;;;23.70;13.60;;;;;;;-6.26;71.96;100540.67;84588;1333;22605;-69
2021/12/08 08:59:59;;;;;;;23.40;12.90;;;;;;;-6.23;72.14;100538.07;84570;1330;22608;-68
2021/12/08 09:02:09;;;;;;;22.90;12.50;;;;;;;-6.20;71.93;100542.59;84603;1330;24311;-70
2021/12/08 09:04:20;;;;;;;28.30;14.00;;;;;;;-6.21;71.79;100539.80;84597;1328;22596;-81
2021/12/08 09:06:31;;;;;;;26.30;14.20;;;;;;;-6.20;71.89;100541.05;83880;1329;1003195;-80
2021/12/08 09:08:40;;;;;;;27.00;16.20;;;;;;;-6.17;71.94;100537.23;84606;1330;22624;-82
2021/12/08 09:10:51;;;;;;;26.90;15.60;;;;;;;-6.13;72.04;100525.13;84595;1331;24280;-82
2021/12/08 09:13:04;;;;;;;25.70;14.10;;;;;;;-6.09;72.05;100517.63;84651;1329;22763;-79
2021/12/08 09:15:16;;;;;;;22.40;14.30;;;;;;;-6.05;72.14;100511.48;83925;1329;1003458;-79
2021/12/08 09:17:28;;;;;;;25.40;13.70;;;;;;;-6.03;71.71;100504.38;84631;1330;25439;-78
2021/12/08 09:19:41;;;;;;;26.80;14.90;;;;;;;-6.01;71.69;100504.45;84575;1332;24096;-69
2021/12/08 09:22:00;;;;;;;29.40;14.60;;;;;;;-5.96;71.51;100513.08;83920;1328;1003255;-69
2021/12/08 09:24:15;;;;;;;29.20;14.40;;;;;;;-5.93;71.53;100511.48;84592;1327;22604;-80
2021/12/08 09:26:25;;;;;;;24.50;14.40;;;;;;;-5.89;71.65;100517.86;84625;1329;22708;-68
2021/12/08 09:28:39;;;;;;;28.60;15.00;;;;;;;-5.86;71.54;100514.04;83940;1329;1002668;-68
2021/12/08 09:30:50;;;;;;;24.20;14.50;;;;;;;-5.87;71.38;100514.70;85078;1312;1003057;-78
2021/12/08 09:33:01;;;;;;;30.10;14.80;;;;;;;-5.84;71.68;100514.11;84748;1327;22665;-79
2021/12/08 09:35:18;;;;;;;38.40;17.40;;;;;;;-5.81;71.79;100514.38;84761;1321;22724;-80
2021/12/08 09:37:30;;;;;;;30.70;16.30;;;;;;;-5.77;71.45;100515.16;84779;1327;24520;-80
2021/12/08 09:39:38;;;;;;;33.30;16.20;;;;;;;-5.79;71.45;100514.94;84066;1327;1003818;-80
2021/12/08 09:41:49;;;;;;;27.90;15.70;;;;;;;-5.77;71.79;100507.72;84761;1327;23480;-68
2021/12/08 09:44:08;;;;;;;29.60;16.00;;;;;;;-5.72;71.76;100497.47;84687;1330;22818;-69
2021/12/08 09:46:19;;;;;;;28.90;14.40;;;;;;;-5.68;71.75;100484.85;84783;1328;22609;-68
2021/12/08 09:48:29;;;;;;;31.30;16.90;;;;;;;-5.69;71.30;100476.14;84062;1326;1002705;-67
2021/12/08 09:50:38;;;;;;;24.80;14.70;;;;;;;-5.70;71.46;100460.83;84038;1328;1002927;-67
2021/12/08 09:52:48;;;;;;;29.40;15.90;;;;;;;-5.70;71.23;100460.16;84721;1331;23170;-68
2021/12/08 09:54:57;;;;;;;40.90;18.40;;;;;;;-5.69;71.49;100459.00;84728;1327;22670;-68
2021/12/08 09:57:11;;;;;;;29.60;14.60;;;;;;;-5.63;71.64;100463.23;84730;1327;22645;-81
2021/12/08 09:59:22;;;;;;;30.80;18.40;;;;;;;-5.58;71.83;100451.99;84756;1327;23850;-81
2021/12/08 10:01:32;;;;;;;35.60;17.70;;;;;;;-5.48;71.89;100454.83;84749;1327;22616;-80
2021/12/08 10:03:44;;;;;;;39.00;18.50;;;;;;;-5.47;71.37;100450.63;84793;1327;22606;-81
2021/12/08 10:05:52;;;;;;;33.10;17.10;;;;;;;-5.48;71.25;100444.46;84810;1326;22588;-67
2021/12/08 10:08:00;;;;;;;29.20;15.90;;;;;;;-5.46;71.73;100443.18;84782;1327;22590;-69
2021/12/08 10:10:15;;;;;;;37.00;17.20;;;;;;;-5.41;71.86;100444.66;84065;1327;1003392;-67
2021/12/08 10:12:23;;;;;;;46.20;22.40;;;;;;;-5.40;71.71;100447.58;84736;1321;22873;-80
2021/12/08 10:14:30;;;;;;;27.00;15.20;;;;;;;-5.39;71.68;100452.86;83809;1327;1003172;-79
2021/12/08 10:16:40;;;;;;;30.80;16.30;;;;;;;-5.42;71.47;100460.45;84746;1329;24287;-81
2021/12/08 10:18:47;;;;;;;44.30;19.90;;;;;;;-5.45;71.44;100465.29;84762;1327;22593;-81